Time;durP1;ratioP1;P1;durP2;ratioP2;P2;SDS_P1;SDS_P2;PMS_P1;PMS_P2;Temp;Humidity;BMP_temperature;BMP_pressure;BME280_temperature;BME280_humidity;BME280_pressure;Samples;Min_cycle;Max_cycle;Signal;HPM_P1;HPM_P2
2023/11/17 00:01:55;;;;;;;2.85;2.65;;;;;;;;;;4951614;29;20043;-72
2023/11/17 00:04:21;;;;;;;4.80;2.72;;;;;;;;;;4960579;29;20051;-71
2023/11/17 00:06:47;;;;;;;2.30;2.10;;;;;;;;;;4954483;29;20047;-71
2023/11/17 00:09:14;;;;;;;2.30;2.20;;;;;;;;;;4950570;29;20533;-71
2023/11/17 00:11:40;;;;;;;2.40;2.20;;;;;;;;;;4951059;29;20031;-72
2023/11/17 00:14:06;;;;;;;3.40;3.17;;;;;;;;;;4933654;29;20054;-71
2023/11/17 00:16:32;;;;;;;2.92;2.72;;;;;;;;;;4952682;29;20043;-70
2023/11/17 00:18:59;;;;;;;2.60;2.40;;;;;;;;;;4952469;29;20043;-71
2023/11/17 00:21:26;;;;;;;3.00;2.80;;;;;;;;;;4952878;29;20050;-71
2023/11/17 00:23:52;;;;;;;3.42;3.03;;;;;;;;;;4953096;29;20457;-71
2023/11/17 00:26:19;;;;;;;4.10;3.80;;;;;;;;;;4952235;28;20078;-72
2023/11/17 00:28:45;;;;;;;3.80;3.60;;;;;;;;;;4935924;29;20097;-71
2023/11/17 00:31:11;;;;;;;4.55;4.15;;;;;;;;;;4952803;29;20560;-71
2023/11/17 00:33:37;;;;;;;5.57;5.07;;;;;;;;;;4952819;29;20047;-72
2023/11/17 00:36:04;;;;;;;4.97;4.57;;;;;;;;;;4935434;29;20115;-71
2023/11/17 00:38:31;;;;;;;6.40;6.00;;;;;;;;;;4937309;29;20585;-71
2023/11/17 00:40:59;;;;;;;4.55;4.25;;;;;;;;;;4935461;29;20107;-73
2023/11/17 00:43:31;;;;;;;5.35;4.95;;;;;;;;;;4952651;29;20532;-72
2023/11/17 00:45:58;;;;;;;6.55;6.03;;;;;;;;;;4939467;29;20035;-74
2023/11/17 00:48:25;;;;;;;5.63;5.22;;;;;;;;;;4916181;29;20544;-73
2023/11/17 00:50:54;;;;;;;7.88;6.88;;;;;;;;;;4933366;29;20043;-73
2023/11/17 00:53:25;;;;;;;5.13;4.72;;;;;;;;;;4915968;29;20139;-73
2023/11/17 00:55:55;;;;;;;5.68;5.28;;;;;;;;;;4916364;29;20071;-73
2023/11/17 00:58:23;;;;;;;6.22;5.65;;;;;;;;;;4933080;29;20131;-73
2023/11/17 01:00:50;;;;;;;8.18;7.57;;;;;;;;;;4933172;29;20510;-73
2023/11/17 01:03:17;;;;;;;6.25;5.85;;;;;;;;;;4932925;29;20040;-74
2023/11/17 01:05:44;;;;;;;7.53;6.97;;;;;;;;;;4932982;29;20126;-73
2023/11/17 01:08:10;;;;;;;7.18;6.43;;;;;;;;;;4915678;29;20052;-72
2023/11/17 01:10:36;;;;;;;5.82;5.32;;;;;;;;;;4916125;29;20090;-74
2023/11/17 01:13:03;;;;;;;7.18;6.47;;;;;;;;;;4915918;29;20426;-72
2023/11/17 01:15:30;;;;;;;5.75;5.35;;;;;;;;;;4942067;29;20050;-71
2023/11/17 01:17:56;;;;;;;11.02;9.93;;;;;;;;;;4952026;29;20394;-74
2023/11/17 01:20:23;;;;;;;7.18;6.57;;;;;;;;;;4934573;29;20039;-72
2023/11/17 01:22:49;;;;;;;7.35;6.75;;;;;;;;;;4951980;29;20047;-73
2023/11/17 01:25:15;;;;;;;8.70;7.88;;;;;;;;;;4951560;29;20130;-73
2023/11/17 01:27:41;;;;;;;6.50;6.03;;;;;;;;;;4951907;29;20146;-73
2023/11/17 01:30:08;;;;;;;6.97;5.25;;;;;;;;;;4951965;29;20063;-73
2023/11/17 01:32:34;;;;;;;5.18;4.78;;;;;;;;;;4952505;29;20125;-71
2023/11/17 01:35:00;;;;;;;4.18;3.88;;;;;;;;;;4952458;29;20066;-72
2023/11/17 01:37:26;;;;;;;4.50;4.20;;;;;;;;;;4934825;29;20572;-72
2023/11/17 01:39:52;;;;;;;4.70;4.30;;;;;;;;;;4956112;29;20043;-72
2023/11/17 01:42:18;;;;;;;4.55;4.25;;;;;;;;;;4923357;29;20094;-73
2023/11/17 01:44:44;;;;;;;4.72;4.43;;;;;;;;;;4956053;29;20035;-73
2023/11/17 01:47:10;;;;;;;4.53;4.05;;;;;;;;;;4955238;28;20052;-72
2023/11/17 01:49:37;;;;;;;4.20;3.90;;;;;;;;;;4938789;29;20047;-72
2023/11/17 01:52:04;;;;;;;4.47;4.18;;;;;;;;;;4954247;29;20047;-72
2023/11/17 01:54:32;;;;;;;4.90;4.50;;;;;;;;;;4938864;29;20044;-71
2023/11/17 01:56:58;;;;;;;7.00;4.57;;;;;;;;;;4922776;29;20051;-72
2023/11/17 01:59:24;;;;;;;5.25;4.88;;;;;;;;;;4954274;29;20045;-71
2023/11/17 02:01:50;;;;;;;5.72;5.30;;;;;;;;;;4938371;29;20051;-72
2023/11/17 02:04:17;;;;;;;3.63;3.30;;;;;;;;;;4938076;29;20039;-71
2023/11/17 02:06:43;;;;;;;5.00;4.63;;;;;;;;;;4927483;29;20066;-73
2023/11/17 02:09:16;;;;;;;4.97;4.47;;;;;;;;;;4938119;29;20043;-71
2023/11/17 02:11:48;;;;;;;5.80;5.32;;;;;;;;;;4938470;29;20276;-71
2023/11/17 02:14:18;;;;;;;4.38;4.05;;;;;;;;;;4938127;29;20516;-72
2023/11/17 02:16:45;;;;;;;3.63;3.35;;;;;;;;;;4938535;29;20117;-71
2023/11/17 02:19:18;;;;;;;4.93;4.47;;;;;;;;;;4953783;29;20070;-72
2023/11/17 02:21:45;;;;;;;3.35;3.15;;;;;;;;;;4970161;28;20079;-72
2023/11/17 02:24:13;;;;;;;3.53;3.33;;;;;;;;;;4953883;28;20042;-72
2023/11/17 02:26:54;;;;;;;3.88;3.60;;;;;;;;;;4955031;28;20126;-72
2023/11/17 02:29:23;;;;;;;3.85;3.55;;;;;;;;;;4953877;29;20074;-72
2023/11/17 02:31:51;;;;;;;3.97;3.67;;;;;;;;;;4955415;28;20054;-72
2023/11/17 02:34:17;;;;;;;3.70;3.40;;;;;;;;;;4953981;29;20047;-71
2023/11/17 02:36:44;;;;;;;4.40;4.10;;;;;;;;;;4953189;29;20083;-72
2023/11/17 02:39:25;;;;;;;3.83;3.35;;;;;;;;;;4954941;29;20098;-71
2023/11/17 02:41:58;;;;;;;3.30;3.00;;;;;;;;;;4953810;29;20058;-72
2023/11/17 02:44:29;;;;;;;3.00;2.80;;;;;;;;;;4954783;29;20090;-72
2023/11/17 02:47:03;;;;;;;2.85;2.65;;;;;;;;;;4937509;29;20051;-72
2023/11/17 02:49:34;;;;;;;3.00;2.80;;;;;;;;;;4954409;28;20051;-72
2023/11/17 02:52:03;;;;;;;2.78;2.58;;;;;;;;;;4939220;29;20126;-72
2023/11/17 02:54:29;;;;;;;3.55;3.25;;;;;;;;;;4956921;29;20129;-72
2023/11/17 02:56:55;;;;;;;3.58;3.28;;;;;;;;;;4934502;29;20074;-71
2023/11/17 02:59:22;;;;;;;4.40;4.00;;;;;;;;;;4955320;29;20098;-72
2023/11/17 03:01:52;;;;;;;3.90;3.60;;;;;;;;;;4955608;29;20560;-73
2023/11/17 03:04:18;;;;;;;4.53;4.13;;;;;;;;;;4921948;29;20047;-72
2023/11/17 03:06:45;;;;;;;7.38;6.00;;;;;;;;;;4953201;29;20070;-71
2023/11/17 03:09:13;;;;;;;10.80;7.60;;;;;;;;;;4954432;29;20075;-73
2023/11/17 03:11:41;;;;;;;9.48;5.82;;;;;;;;;;4953924;29;20414;-72
2023/11/17 03:14:08;;;;;;;5.50;4.97;;;;;;;;;;4936919;29;20047;-73
2023/11/17 03:16:35;;;;;;;3.75;3.55;;;;;;;;;;4954185;29;20118;-72
2023/11/17 03:19:01;;;;;;;5.38;5.07;;;;;;;;;;4954141;29;20058;-72
2023/11/17 03:21:27;;;;;;;5.43;5.03;;;;;;;;;;4936718;29;20461;-73
2023/11/17 03:23:54;;;;;;;5.43;5.03;;;;;;;;;;4921016;29;20059;-73
2023/11/17 03:26:20;;;;;;;5.22;4.82;;;;;;;;;;4936798;29;20043;-73
2023/11/17 03:28:46;;;;;;;5.18;4.75;;;;;;;;;;4937205;29;20050;-73
2023/11/17 03:31:15;;;;;;;5.53;5.13;;;;;;;;;;4953998;29;20113;-73
2023/11/17 03:33:43;;;;;;;6.60;4.90;;;;;;;;;;4937871;29;20051;-72
2023/11/17 03:36:12;;;;;;;3.20;3.00;;;;;;;;;;4936470;29;20031;-72
2023/11/17 03:38:40;;;;;;;3.65;3.33;;;;;;;;;;4936844;29;20050;-71
2023/11/17 03:41:06;;;;;;;4.65;4.25;;;;;;;;;;4951717;29;20125;-73
2023/11/17 03:43:32;;;;;;;2.95;2.75;;;;;;;;;;4936546;29;20529;-72
2023/11/17 03:46:00;;;;;;;3.45;3.25;;;;;;;;;;4953975;28;20122;-72
2023/11/17 03:48:26;;;;;;;4.88;4.47;;;;;;;;;;4937823;29;20106;-72
2023/11/17 03:50:52;;;;;;;3.78;3.42;;;;;;;;;;4951450;29;20063;-75
2023/11/17 03:53:18;;;;;;;4.07;3.78;;;;;;;;;;4952431;29;20054;-73
2023/11/17 03:55:46;;;;;;;2.75;2.55;;;;;;;;;;4953514;29;20042;-73
2023/11/17 03:58:12;;;;;;;3.85;3.55;;;;;;;;;;4921912;29;20130;-73
2023/11/17 04:00:38;;;;;;;3.75;2.65;;;;;;;;;;4943905;28;20401;-73
2023/11/17 04:03:04;;;;;;;4.40;3.35;;;;;;;;;;4953206;29;20040;-73
2023/11/17 04:05:32;;;;;;;3.85;3.55;;;;;;;;;;4936114;29;20043;-74
2023/11/17 04:07:59;;;;;;;8.90;4.78;;;;;;;;;;4936072;29;20141;-71
2023/11/17 04:10:26;;;;;;;5.18;4.10;;;;;;;;;;4935775;29;20074;-72
2023/11/17 04:12:54;;;;;;;3.05;2.85;;;;;;;;;;4935924;29;20043;-72
2023/11/17 04:15:21;;;;;;;3.95;3.20;;;;;;;;;;4924898;29;20051;-72
2023/11/17 04:17:47;;;;;;;3.95;3.55;;;;;;;;;;4953334;28;20089;-72
2023/11/17 04:20:14;;;;;;;2.50;2.40;;;;;;;;;;4967722;28;20043;-71
2023/11/17 04:22:41;;;;;;;3.58;3.25;;;;;;;;;;4953057;28;20551;-72
2023/11/17 04:25:09;;;;;;;4.93;4.28;;;;;;;;;;4952923;28;20430;-72
2023/11/17 04:27:38;;;;;;;2.30;2.20;;;;;;;;;;4950304;28;20737;-71
2023/11/17 04:30:08;;;;;;;3.65;2.88;;;;;;;;;;4950606;29;20189;-72
2023/11/17 04:32:35;;;;;;;4.10;3.83;;;;;;;;;;4950855;29;20208;-72
2023/11/17 04:35:01;;;;;;;3.65;3.35;;;;;;;;;;4935240;29;20054;-72
2023/11/17 04:37:30;;;;;;;3.72;3.42;;;;;;;;;;4951085;29;20057;-71
2023/11/17 04:39:56;;;;;;;4.25;3.35;;;;;;;;;;4952779;29;20039;-72
2023/11/17 04:42:23;;;;;;;3.95;3.55;;;;;;;;;;4952309;29;20525;-71
2023/11/17 04:44:49;;;;;;;4.13;3.72;;;;;;;;;;4952554;29;20039;-72
2023/11/17 04:47:15;;;;;;;4.60;3.65;;;;;;;;;;4951762;28;20514;-72
2023/11/17 04:49:45;;;;;;;4.10;3.80;;;;;;;;;;4935324;29;20053;-71
2023/11/17 04:52:11;;;;;;;3.60;3.30;;;;;;;;;;4952676;29;20039;-72
2023/11/17 04:54:38;;;;;;;6.75;5.15;;;;;;;;;;4935303;29;20092;-72
2023/11/17 04:57:04;;;;;;;3.30;3.00;;;;;;;;;;4951303;29;20513;-72
2023/11/17 04:59:30;;;;;;;5.35;4.13;;;;;;;;;;4952222;29;20083;-72
2023/11/17 05:01:56;;;;;;;7.65;4.88;;;;;;;;;;4952374;29;20046;-72
2023/11/17 05:04:22;;;;;;;4.85;4.45;;;;;;;;;;4934934;29;20047;-72
2023/11/17 05:06:48;;;;;;;5.07;4.65;;;;;;;;;;4951439;29;20047;-71
2023/11/17 05:09:15;;;;;;;5.35;4.82;;;;;;;;;;4940218;29;20058;-72
2023/11/17 05:11:41;;;;;;;4.80;4.40;;;;;;;;;;4900158;29;20043;-72
2023/11/17 05:14:07;;;;;;;5.05;3.42;;;;;;;;;;4946642;29;20138;-72
2023/11/17 05:16:37;;;;;;;2.95;2.75;;;;;;;;;;4951080;29;20067;-71
2023/11/17 05:19:04;;;;;;;7.90;3.73;;;;;;;;;;4951729;28;20106;-72
2023/11/17 05:21:31;;;;;;;4.57;4.18;;;;;;;;;;4951187;29;20281;-72
2023/11/17 05:23:57;;;;;;;4.53;4.13;;;;;;;;;;4918453;29;20047;-72
2023/11/17 05:26:23;;;;;;;5.10;4.70;;;;;;;;;;4933842;29;20091;-72
2023/11/17 05:28:50;;;;;;;4.47;4.07;;;;;;;;;;4951228;29;20055;-73
2023/11/17 05:31:17;;;;;;;4.35;4.05;;;;;;;;;;4940144;29;20040;-72
2023/11/17 05:33:43;;;;;;;3.42;3.22;;;;;;;;;;4932196;29;20047;-73
2023/11/17 05:36:09;;;;;;;5.15;3.03;;;;;;;;;;4931779;29;20115;-72
2023/11/17 05:38:37;;;;;;;2.80;2.60;;;;;;;;;;4932243;29;20055;-73
2023/11/17 05:41:05;;;;;;;3.08;2.88;;;;;;;;;;4915997;29;20553;-72
2023/11/17 05:43:31;;;;;;;3.25;3.05;;;;;;;;;;4932222;29;20545;-71
2023/11/17 05:46:00;;;;;;;3.22;3.03;;;;;;;;;;4948723;29;20536;-73
2023/11/17 05:48:26;;;;;;;3.15;2.95;;;;;;;;;;4953112;29;20521;-71
2023/11/17 05:50:54;;;;;;;1.95;1.85;;;;;;;;;;4962445;29;20035;-71
2023/11/17 05:53:21;;;;;;;3.55;2.58;;;;;;;;;;4964669;29;20035;-72
2023/11/17 05:55:47;;;;;;;4.30;4.00;;;;;;;;;;4953538;29;20494;-72
2023/11/17 05:58:13;;;;;;;3.30;3.10;;;;;;;;;;4951832;29;20221;-71
2023/11/17 06:00:39;;;;;;;2.63;2.42;;;;;;;;;;4951259;29;20693;-71
2023/11/17 06:03:05;;;;;;;3.72;3.42;;;;;;;;;;4951264;29;20043;-73
2023/11/17 06:05:31;;;;;;;4.22;3.92;;;;;;;;;;4933949;29;20071;-72
2023/11/17 06:07:57;;;;;;;3.97;3.67;;;;;;;;;;4939993;29;20056;-71
2023/11/17 06:10:23;;;;;;;3.75;3.45;;;;;;;;;;4932008;29;20055;-71
2023/11/17 06:12:50;;;;;;;4.40;4.00;;;;;;;;;;4920738;29;20039;-72
2023/11/17 06:15:20;;;;;;;4.07;3.78;;;;;;;;;;4934272;29;20054;-73
2023/11/17 06:17:46;;;;;;;3.60;3.30;;;;;;;;;;4951254;29;20043;-73
2023/11/17 06:20:14;;;;;;;4.07;3.78;;;;;;;;;;4951061;29;20130;-71
2023/11/17 06:22:40;;;;;;;5.30;4.85;;;;;;;;;;4950947;29;20466;-73
2023/11/17 06:25:06;;;;;;;12.43;7.90;;;;;;;;;;4953786;28;20046;-71
2023/11/17 06:27:33;;;;;;;4.45;4.05;;;;;;;;;;4950074;29;20510;-73
2023/11/17 06:30:00;;;;;;;5.50;5.00;;;;;;;;;;4954101;29;20464;-72
2023/11/17 06:32:27;;;;;;;4.55;4.13;;;;;;;;;;4953795;29;20035;-71
2023/11/17 06:34:53;;;;;;;5.82;5.32;;;;;;;;;;4954684;29;20051;-73
2023/11/17 06:37:19;;;;;;;4.75;4.38;;;;;;;;;;4937244;29;20032;-72
2023/11/17 06:39:45;;;;;;;4.13;3.83;;;;;;;;;;4955481;29;20051;-74
2023/11/17 06:42:13;;;;;;;3.40;3.20;;;;;;;;;;4955332;29;20087;-71
2023/11/17 06:44:40;;;;;;;3.42;3.22;;;;;;;;;;4954760;29;20513;-73
2023/11/17 06:47:06;;;;;;;3.88;3.58;;;;;;;;;;4937701;29;20047;-73
2023/11/17 06:49:32;;;;;;;3.17;2.95;;;;;;;;;;4954228;29;20051;-74
2023/11/17 06:51:58;;;;;;;3.70;3.40;;;;;;;;;;4937888;29;20039;-73
2023/11/17 06:54:27;;;;;;;3.50;3.25;;;;;;;;;;4937424;29;20417;-72
2023/11/17 06:56:53;;;;;;;4.15;3.85;;;;;;;;;;4936625;29;20039;-72
2023/11/17 06:59:22;;;;;;;4.53;4.15;;;;;;;;;;4953848;29;20494;-74
2023/11/17 07:01:49;;;;;;;7.53;6.75;;;;;;;;;;4953449;29;20383;-71
2023/11/17 07:04:16;;;;;;;3.80;3.40;;;;;;;;;;4953345;29;20134;-72
2023/11/17 07:06:42;;;;;;;3.10;2.90;;;;;;;;;;4950192;29;20040;-74
2023/11/17 07:09:16;;;;;;;5.03;4.50;;;;;;;;;;4949412;29;20043;-74
2023/11/17 07:11:44;;;;;;;5.97;5.10;;;;;;;;;;4952263;29;20031;-71
2023/11/17 07:14:11;;;;;;;4.68;4.38;;;;;;;;;;4952255;29;20136;-72
2023/11/17 07:16:41;;;;;;;3.67;3.33;;;;;;;;;;4934607;29;20501;-73
2023/11/17 07:19:08;;;;;;;5.32;4.82;;;;;;;;;;4954411;29;20106;-72
2023/11/17 07:21:36;;;;;;;4.25;3.95;;;;;;;;;;4954624;29;20042;-73
2023/11/17 07:24:05;;;;;;;3.30;3.00;;;;;;;;;;4936489;29;20047;-72
2023/11/17 07:26:32;;;;;;;4.07;3.70;;;;;;;;;;4935752;29;20114;-72
2023/11/17 07:28:58;;;;;;;15.07;8.55;;;;;;;;;;4936447;29;20047;-72
2023/11/17 07:31:24;;;;;;;21.42;11.00;;;;;;;;;;4954637;29;20035;-73
2023/11/17 07:33:51;;;;;;;8.18;6.00;;;;;;;;;;4956464;29;20066;-74
2023/11/17 07:36:17;;;;;;;4.53;4.22;;;;;;;;;;4937102;29;20039;-74
2023/11/17 07:38:44;;;;;;;5.43;4.88;;;;;;;;;;4955283;29;20558;-72
2023/11/17 07:41:12;;;;;;;4.70;4.35;;;;;;;;;;4957363;29;20071;-73
2023/11/17 07:43:39;;;;;;;4.85;4.45;;;;;;;;;;4956923;29;20043;-76
2023/11/17 07:46:05;;;;;;;4.15;3.85;;;;;;;;;;4957872;28;20067;-75
2023/11/17 07:48:31;;;;;;;3.63;3.33;;;;;;;;;;4953277;29;20109;-72
2023/11/17 07:50:58;;;;;;;3.55;3.25;;;;;;;;;;4952890;29;20063;-74
2023/11/17 07:53:24;;;;;;;5.13;4.72;;;;;;;;;;4912102;29;20131;-72
2023/11/17 07:55:53;;;;;;;7.35;6.55;;;;;;;;;;4953034;29;20057;-74
2023/11/17 07:58:20;;;;;;;5.60;5.18;;;;;;;;;;4935541;29;20042;-73
2023/11/17 08:00:49;;;;;;;4.70;4.30;;;;;;;;;;4952551;29;20557;-74
2023/11/17 08:03:16;;;;;;;4.20;3.70;;;;;;;;;;4935586;29;20074;-72
2023/11/17 08:05:43;;;;;;;3.20;3.00;;;;;;;;;;4951900;29;20082;-73
2023/11/17 08:08:09;;;;;;;6.32;5.72;;;;;;;;;;4921418;29;20576;-72
2023/11/17 08:10:35;;;;;;;6.32;5.80;;;;;;;;;;4952342;29;20043;-72
2023/11/17 08:13:03;;;;;;;14.32;7.78;;;;;;;;;;4952369;29;20506;-72
2023/11/17 08:15:30;;;;;;;7.97;4.57;;;;;;;;;;4951738;29;20074;-71
2023/11/17 08:17:56;;;;;;;5.70;5.05;;;;;;;;;;4932556;29;20054;-72
2023/11/17 08:20:22;;;;;;;4.15;3.33;;;;;;;;;;4935094;29;20505;-72
2023/11/17 08:22:51;;;;;;;3.50;3.20;;;;;;;;;;4952595;29;20043;-71
2023/11/17 08:25:17;;;;;;;4.50;4.18;;;;;;;;;;4952457;29;20047;-72
2023/11/17 08:27:44;;;;;;;5.95;5.25;;;;;;;;;;4952428;29;20051;-72
2023/11/17 08:30:11;;;;;;;4.50;4.13;;;;;;;;;;4934220;29;20126;-72
2023/11/17 08:32:37;;;;;;;4.85;4.20;;;;;;;;;;4938942;29;20048;-72
2023/11/17 08:35:04;;;;;;;6.53;5.43;;;;;;;;;;4933308;29;20047;-71
2023/11/17 08:37:32;;;;;;;6.43;5.82;;;;;;;;;;4907385;29;20080;-72
2023/11/17 08:39:59;;;;;;;6.47;5.95;;;;;;;;;;4949713;29;20067;-71
2023/11/17 08:42:25;;;;;;;9.60;5.63;;;;;;;;;;4943625;29;20043;-72
2023/11/17 08:44:51;;;;;;;6.45;5.85;;;;;;;;;;4949471;29;20062;-71
2023/11/17 08:47:17;;;;;;;6.30;5.88;;;;;;;;;;4955128;28;20039;-71
2023/11/17 08:49:43;;;;;;;11.38;8.65;;;;;;;;;;4951751;29;20395;-72
2023/11/17 08:52:08;;;;;;;8.25;7.65;;;;;;;;;;4951224;29;20035;-72
2023/11/17 08:54:35;;;;;;;5.35;5.03;;;;;;;;;;4951837;29;20047;-72
2023/11/17 08:57:02;;;;;;;6.68;6.07;;;;;;;;;;4951839;29;20073;-73
2023/11/17 08:59:29;;;;;;;5.25;4.85;;;;;;;;;;4939029;29;20040;-73
2023/11/17 09:01:54;;;;;;;6.25;5.70;;;;;;;;;;4950402;29;20043;-74
2023/11/17 09:04:21;;;;;;;5.50;4.93;;;;;;;;;;4933270;29;20425;-73
2023/11/17 09:06:48;;;;;;;3.45;3.15;;;;;;;;;;4951806;29;20424;-73
2023/11/17 09:09:15;;;;;;;5.47;4.95;;;;;;;;;;4904581;29;20047;-76
2023/11/17 09:11:42;;;;;;;7.40;5.22;;;;;;;;;;4950912;29;20137;-74
2023/11/17 09:14:10;;;;;;;3.40;3.20;;;;;;;;;;4945526;29;20135;-72
2023/11/17 09:16:36;;;;;;;2.50;2.33;;;;;;;;;;4935212;29;20536;-74
2023/11/17 09:19:02;;;;;;;3.53;3.33;;;;;;;;;;4945334;29;20130;-71
2023/11/17 09:21:31;;;;;;;4.80;4.07;;;;;;;;;;4953685;29;20427;-73
2023/11/17 09:23:57;;;;;;;6.10;4.78;;;;;;;;;;4953221;29;20047;-71
2023/11/17 09:26:23;;;;;;;2.83;2.63;;;;;;;;;;4951625;29;20077;-71
2023/11/17 09:28:49;;;;;;;2.90;2.72;;;;;;;;;;4934429;29;20094;-71
2023/11/17 09:31:16;;;;;;;2.95;2.75;;;;;;;;;;4951949;29;20072;-73
2023/11/17 09:33:42;;;;;;;3.60;3.30;;;;;;;;;;4918728;29;20039;-70
2023/11/17 09:36:10;;;;;;;2.92;2.72;;;;;;;;;;4951834;29;20045;-72
2023/11/17 09:38:40;;;;;;;2.50;2.40;;;;;;;;;;4951242;29;20047;-71
2023/11/17 09:41:06;;;;;;;2.63;2.53;;;;;;;;;;4952306;29;20040;-71
2023/11/17 09:43:39;;;;;;;3.17;2.97;;;;;;;;;;4950612;29;20374;-71
2023/11/17 09:46:05;;;;;;;5.45;4.95;;;;;;;;;;4934361;28;20518;-71
2023/11/17 09:48:31;;;;;;;5.47;4.90;;;;;;;;;;4954180;28;20473;-72
2023/11/17 09:51:02;;;;;;;5.43;4.35;;;;;;;;;;4950437;29;20188;-72
2023/11/17 09:53:28;;;;;;;5.82;3.40;;;;;;;;;;4949613;29;20059;-71
2023/11/17 09:55:54;;;;;;;3.22;2.88;;;;;;;;;;4950190;29;20051;-71
2023/11/17 09:58:20;;;;;;;4.25;3.83;;;;;;;;;;4949968;28;20081;-72
2023/11/17 10:00:46;;;;;;;6.35;5.18;;;;;;;;;;4953463;29;20046;-72
2023/11/17 10:03:15;;;;;;;4.88;4.47;;;;;;;;;;4955185;28;20039;-71
2023/11/17 10:05:42;;;;;;;3.92;3.65;;;;;;;;;;4954012;29;20055;-72
2023/11/17 10:08:13;;;;;;;3.75;3.55;;;;;;;;;;4954738;28;20058;-72
2023/11/17 10:10:42;;;;;;;3.05;2.85;;;;;;;;;;4955126;29;20047;-71
2023/11/17 10:13:11;;;;;;;3.70;3.40;;;;;;;;;;4922403;29;20564;-71
2023/11/17 10:15:38;;;;;;;3.53;3.22;;;;;;;;;;4955199;29;20046;-74
2023/11/17 10:18:07;;;;;;;3.63;3.33;;;;;;;;;;4944007;29;20042;-72
2023/11/17 10:20:37;;;;;;;4.28;3.25;;;;;;;;;;4956523;29;20047;-73
2023/11/17 10:23:04;;;;;;;2.45;2.35;;;;;;;;;;4921962;29;20036;-72
2023/11/17 10:25:31;;;;;;;3.15;2.95;;;;;;;;;;4923058;29;20053;-74
2023/11/17 10:27:57;;;;;;;2.85;2.65;;;;;;;;;;4932675;29;20110;-73
2023/11/17 10:30:25;;;;;;;2.20;2.10;;;;;;;;;;4939924;29;20071;-72
2023/11/17 10:32:53;;;;;;;3.17;2.85;;;;;;;;;;4939295;29;20043;-72
2023/11/17 10:35:25;;;;;;;8.60;2.78;;;;;;;;;;4932428;29;20191;-71
2023/11/17 10:37:55;;;;;;;3.17;2.50;;;;;;;;;;4919668;29;20511;-72
2023/11/17 10:40:23;;;;;;;2.80;2.60;;;;;;;;;;4935735;29;20098;-72
2023/11/17 10:43:04;;;;;;;2.97;2.78;;;;;;;;;;4935098;29;20044;-74
2023/11/17 10:45:32;;;;;;;3.08;2.88;;;;;;;;;;4935162;29;20103;-73
2023/11/17 10:47:59;;;;;;;5.72;5.32;;;;;;;;;;4917800;29;20047;-72
2023/11/17 10:50:28;;;;;;;3.92;3.63;;;;;;;;;;4934737;29;20430;-70
2023/11/17 10:53:11;;;;;;;3.13;2.85;;;;;;;;;;4917985;29;20040;-71
2023/11/17 10:55:39;;;;;;;4.25;3.92;;;;;;;;;;4917784;29;20391;-72
2023/11/17 10:58:08;;;;;;;3.75;3.38;;;;;;;;;;4918553;29;20509;-72
2023/11/17 11:00:38;;;;;;;3.92;3.53;;;;;;;;;;4949048;29;20113;-71
2023/11/17 11:03:04;;;;;;;5.40;4.90;;;;;;;;;;4952268;29;20047;-70
2023/11/17 11:05:31;;;;;;;11.75;6.68;;;;;;;;;;4952418;29;20051;-69
2023/11/17 11:07:58;;;;;;;6.50;5.65;;;;;;;;;;4950459;29;20070;-70
2023/11/17 11:10:26;;;;;;;5.38;3.53;;;;;;;;;;4936058;29;20136;-71
2023/11/17 11:12:52;;;;;;;4.30;4.00;;;;;;;;;;4935579;29;20484;-69
2023/11/17 11:15:18;;;;;;;4.85;4.55;;;;;;;;;;4936769;29;20071;-70
2023/11/17 11:17:50;;;;;;;4.53;4.10;;;;;;;;;;4935708;29;20075;-71
2023/11/17 11:20:17;;;;;;;3.97;3.67;;;;;;;;;;4949162;29;20544;-72
2023/11/17 11:22:43;;;;;;;6.00;3.75;;;;;;;;;;4953649;29;20039;-71
2023/11/17 11:25:11;;;;;;;4.28;3.90;;;;;;;;;;4937041;29;20502;-72
2023/11/17 11:27:38;;;;;;;4.45;3.90;;;;;;;;;;4954529;29;20055;-70
2023/11/17 11:30:06;;;;;;;2.05;1.95;;;;;;;;;;4953474;29;20098;-70
2023/11/17 11:32:32;;;;;;;3.97;3.70;;;;;;;;;;4953948;29;20102;-72
2023/11/17 11:34:59;;;;;;;4.25;3.90;;;;;;;;;;4954158;29;20442;-73
2023/11/17 11:37:32;;;;;;;4.13;3.83;;;;;;;;;;4970273;29;20413;-74
2023/11/17 11:39:58;;;;;;;4.50;4.20;;;;;;;;;;4958083;29;20045;-74
2023/11/17 11:42:24;;;;;;;7.70;4.72;;;;;;;;;;4952358;29;20517;-70
2023/11/17 11:44:51;;;;;;;4.38;3.78;;;;;;;;;;4953061;28;20043;-71
2023/11/17 11:47:22;;;;;;;3.58;3.30;;;;;;;;;;4951759;28;20082;-74
2023/11/17 11:49:49;;;;;;;4.70;4.30;;;;;;;;;;4951932;29;20130;-73
2023/11/17 11:52:23;;;;;;;7.95;4.68;;;;;;;;;;4955407;29;20042;-75
2023/11/17 11:54:49;;;;;;;5.43;4.10;;;;;;;;;;4953127;29;20054;-72
2023/11/17 11:57:25;;;;;;;3.63;3.33;;;;;;;;;;4954650;28;20054;-71
2023/11/17 11:59:52;;;;;;;3.03;2.72;;;;;;;;;;4941176;29;20534;-68
2023/11/17 12:02:18;;;;;;;5.07;4.65;;;;;;;;;;4952880;29;20039;-73
2023/11/17 12:04:45;;;;;;;3.30;3.00;;;;;;;;;;4952621;29;20047;-72
2023/11/17 12:07:37;;;;;;;3.13;2.92;;;;;;;;;;4930640;29;20105;-74
2023/11/17 12:10:05;;;;;;;3.75;3.20;;;;;;;;;;4930030;29;20486;-69
2023/11/17 12:12:33;;;;;;;3.08;2.88;;;;;;;;;;4885120;29;20058;-72
2023/11/17 12:15:00;;;;;;;3.65;3.28;;;;;;;;;;4933609;29;20044;-72
2023/11/17 12:17:31;;;;;;;3.10;2.90;;;;;;;;;;4923231;29;20422;-72
2023/11/17 12:20:17;;;;;;;3.53;3.33;;;;;;;;;;4951866;29;20085;-73
2023/11/17 12:22:56;;;;;;;6.82;3.42;;;;;;;;;;4951776;28;20050;-77
2023/11/17 12:25:22;;;;;;;3.80;3.22;;;;;;;;;;4950275;29;20054;-72
2023/11/17 12:27:49;;;;;;;3.97;3.38;;;;;;;;;;4937037;29;20074;-73
2023/11/17 12:30:15;;;;;;;4.80;3.95;;;;;;;;;;4952681;28;20051;-74
2023/11/17 12:32:42;;;;;;;4.15;3.85;;;;;;;;;;4951349;28;20142;-80
2023/11/17 12:37:40;;;;;;;3.38;3.08;;;;;;;;;;4938889;29;20468;-76
2023/11/17 12:40:14;;;;;;;5.00;4.60;;;;;;;;;;5008735;23;20059;31
2023/11/17 12:42:40;;;;;;;4.28;3.97;;;;;;;;;;4930223;29;20119;-82
2023/11/17 12:45:10;;;;;;;5.22;4.82;;;;;;;;;;4911861;29;20047;-84
2023/11/17 12:47:36;;;;;;;3.70;3.43;;;;;;;;;;4942369;29;20056;-81
2023/11/17 12:50:05;;;;;;;5.80;5.30;;;;;;;;;;4936560;29;20786;-82
2023/11/17 12:52:31;;;;;;;5.28;4.88;;;;;;;;;;5329205;23;21253;-78
2023/11/17 12:55:08;;;;;;;2.85;2.65;;;;;;;;;;5471081;23;21092;31
2023/11/17 13:00:30;;;;;;;3.05;2.85;;;;;;;;;;5042061;23;20054;-83
2023/11/17 13:02:57;;;;;;;4.32;4.03;;;;;;;;;;4979639;28;20094;-86
2023/11/17 13:05:22;;;;;;;4.03;3.72;;;;;;;;;;4979974;28;20047;-84
2023/11/17 13:07:49;;;;;;;6.32;4.57;;;;;;;;;;4984880;28;20111;-82
2023/11/17 13:10:15;;;;;;;3.92;3.63;;;;;;;;;;4985143;28;20049;-82
2023/11/17 13:12:45;;;;;;;4.35;4.03;;;;;;;;;;4985358;28;20035;-85
2023/11/17 13:15:13;;;;;;;3.97;3.58;;;;;;;;;;5077558;23;20042;-86
2023/11/17 13:17:38;;;;;;;4.32;3.92;;;;;;;;;;4959981;28;20513;-80
2023/11/17 13:20:13;;;;;;;3.72;3.53;;;;;;;;;;4974118;28;20066;-83
2023/11/17 13:22:49;;;;;;;3.80;3.50;;;;;;;;;;5096124;23;20344;-80
2023/11/17 13:25:32;;;;;;;5.80;3.70;;;;;;;;;;6018372;23;20022;-81
2023/11/17 13:28:04;;;;;;;5.43;3.78;;;;;;;;;;5140847;23;20529;-81
2023/11/17 13:30:31;;;;;;;6.60;4.03;;;;;;;;;;5320970;23;20235;-82
2023/11/17 13:33:01;;;;;;;5.50;4.70;;;;;;;;;;5121820;23;20082;-83
2023/11/17 13:35:28;;;;;;;4.55;4.25;;;;;;;;;;4952604;28;20035;-78
2023/11/17 13:37:59;;;;;;;3.78;3.47;;;;;;;;;;4956532;28;20055;-78
2023/11/17 13:40:26;;;;;;;5.47;4.97;;;;;;;;;;4957119;29;20414;-78
2023/11/17 13:42:54;;;;;;;4.32;3.92;;;;;;;;;;4958585;29;20421;-82
2023/11/17 13:45:21;;;;;;;4.28;3.97;;;;;;;;;;4967307;28;20015;-80
2023/11/17 13:48:04;;;;;;;5.03;4.63;;;;;;;;;;4961196;28;20050;-80
2023/11/17 13:50:36;;;;;;;3.45;3.15;;;;;;;;;;4964536;29;20118;-78
2023/11/17 13:53:04;;;;;;;3.63;3.33;;;;;;;;;;4952230;29;20053;-78
2023/11/17 13:55:30;;;;;;;3.13;2.92;;;;;;;;;;4956696;29;20043;-77
2023/11/17 13:57:56;;;;;;;4.00;3.70;;;;;;;;;;4952828;29;20122;-82
2023/11/17 14:00:25;;;;;;;3.78;3.47;;;;;;;;;;4951978;28;20118;-80
2023/11/17 14:02:53;;;;;;;2.85;2.72;;;;;;;;;;4973086;28;20039;-80
2023/11/17 14:05:19;;;;;;;2.45;2.30;;;;;;;;;;4934347;29;20052;-80
2023/11/17 14:07:45;;;;;;;2.97;2.78;;;;;;;;;;4953484;28;20039;-87
2023/11/17 14:10:15;;;;;;;2.65;2.45;;;;;;;;;;4930050;29;20114;-80
2023/11/17 14:12:41;;;;;;;9.80;4.07;;;;;;;;;;4954928;29;20020;-85
2023/11/17 17:10:37;;;;;;;1.88;1.77;;;;;;;;;;1384917;26;20051;-79
2023/11/17 17:13:04;;;;;;;2.20;2.10;;;;;;;;;;4957149;28;20054;-77
2023/11/17 17:15:31;;;;;;;2.83;2.25;;;;;;;;;;4936608;29;20039;-77
2023/11/17 17:17:58;;;;;;;3.75;1.92;;;;;;;;;;4952892;29;20074;-75
2023/11/17 17:20:25;;;;;;;1.65;1.55;;;;;;;;;;4932875;29;20047;-77
2023/11/17 17:22:57;;;;;;;1.48;1.48;;;;;;;;;;4966043;28;20399;-75
2023/11/17 17:25:23;;;;;;;1.98;1.88;;;;;;;;;;4935051;29;20391;-74
2023/11/17 17:27:53;;;;;;;2.53;1.90;;;;;;;;;;4937928;29;20062;-76
2023/11/17 17:30:22;;;;;;;2.10;2.00;;;;;;;;;;4947235;29;20026;-80
2023/11/17 17:32:49;;;;;;;2.75;1.83;;;;;;;;;;4956649;29;20560;-75
2023/11/17 17:35:15;;;;;;;2.83;2.63;;;;;;;;;;4956339;28;20046;-76
2023/11/17 17:37:44;;;;;;;2.35;2.17;;;;;;;;;;4936165;29;20054;-76
2023/11/17 17:40:19;;;;;;;2.10;1.92;;;;;;;;;;4936907;29;20039;-77
2023/11/17 17:42:45;;;;;;;2.10;2.00;;;;;;;;;;4955949;28;20047;-77
2023/11/17 17:45:11;;;;;;;2.00;1.90;;;;;;;;;;4960881;29;20043;-81
2023/11/17 17:47:38;;;;;;;1.70;1.60;;;;;;;;;;4965666;29;20106;-78